CW6975 Rochester WA US current weather conditions

sailwx.info

Wind from 263

Air temperature 2.2° C
Dewpoint 1.6° C

Last reported at 2019-Oct-14 15:03 UTC.
Time now 2019-Oct-14 15:18 UTC

Location: N 46°49' W 123°05'.
View on Google Maps.

See reports from other nearby stations

  
Tides and Currents Weather Stations Pressure Air Temp Water Temp Dewpoint Dewpoint Depression Visibility Wind Speed Wind Dir Waves Ship Positions
date/time (UTC)wind fromknots sea level pressurealtimeterstation pressurevisibilityair tempwater tempwave heightnotes
2019-Oct-14 15:03 263 2.2
2019-Oct-14 14:48 263 1.7
2019-Oct-14 14:33 263 2.2
2019-Oct-14 14:18 263 2.2
2019-Oct-14 14:03 263 2.2
2019-Oct-14 13:48 263 2.2
2019-Oct-14 13:33 263 2.8
2019-Oct-14 13:18 263 2.8
2019-Oct-14 13:03 263 2.8
2019-Oct-14 12:48 263 2.8
2019-Oct-14 12:33 263 2.8
2019-Oct-14 12:18 263 2.8
2019-Oct-14 12:03 263 2.8
2019-Oct-14 11:48 263 2.2
2019-Oct-14 11:33 263 2.2
2019-Oct-14 11:18 263 2.2
2019-Oct-14 11:03 263 2.2
2019-Oct-14 10:48 263 2.2
2019-Oct-14 10:33 263 1.7
2019-Oct-14 10:03 263 2.2
2019-Oct-14 09:48 263 2.2
2019-Oct-14 09:33 263 2.2
2019-Oct-14 09:18 263 2.8
2019-Oct-14 09:03 263 3.3
2019-Oct-14 08:48 263 3.9
2019-Oct-14 08:33 263 4.4
2019-Oct-14 08:18 263 4.4
2019-Oct-14 08:03 263 5.0
2019-Oct-14 07:48 263 5.0
2019-Oct-14 07:33 263 4.4
2019-Oct-14 07:18 263 3.9
2019-Oct-14 07:03 263 3.9
2019-Oct-14 06:48 263 4.4
2019-Oct-14 06:33 263 5.0
2019-Oct-14 06:18 263 6.1
2019-Oct-14 05:48 263 7.2
2019-Oct-14 05:33 263 7.8
2019-Oct-14 05:18 263 8.3
2019-Oct-14 05:03 263 8.3
2019-Oct-14 04:48 263 8.3
2019-Oct-14 04:33 263 8.3
2019-Oct-14 04:18 263 8.9
2019-Oct-14 04:03 263 9.4
2019-Oct-14 03:48 263 10.0
2019-Oct-14 03:33 271 10.0
2019-Oct-14 03:18 291 0 gusting 3 10.0
2019-Oct-14 03:03 296 10.6
2019-Oct-14 02:48 208 10.6
2019-Oct-14 02:33 209 11.1
2019-Oct-14 02:18 258 0 gusting 5 11.1
2019-Oct-14 02:03 267 0 gusting 4 11.7
2019-Oct-14 01:48 258 0 gusting 4 12.2
2019-Oct-14 01:33 257 12.8
2019-Oct-14 01:18 245 0 gusting 5 13.3
2019-Oct-14 01:03 281 13.9
2019-Oct-14 00:48 278 2 gusting 7 14.4
2019-Oct-14 00:33 228 1 gusting 6 15.6
2019-Oct-14 00:18 284 0 gusting 4 15.6
2019-Oct-14 00:03 290 15.0
2019-Oct-13 23:48 288 1 gusting 6 15.6
2019-Oct-13 23:33 220 3 gusting 6 16.7
2019-Oct-13 23:18 264 0 gusting 3 16.7
2019-Oct-13 23:03 273 15.6
2019-Oct-13 22:48 265 1 gusting 6 16.7
2019-Oct-13 22:33 270 0 gusting 7 16.7
2019-Oct-13 22:18 162 2 gusting 6 16.7
2019-Oct-13 22:03 209 1 gusting 6 16.1
2019-Oct-13 21:48 288 0 gusting 7 16.1
2019-Oct-13 21:33 284 1 gusting 5 15.6
2019-Oct-13 21:18 273 0 gusting 5 16.1
2019-Oct-13 21:03 295 2 gusting 6 16.1
2019-Oct-13 20:48 181 2 gusting 6 15.6
2019-Oct-13 20:33 296 2 gusting 6 15.6
2019-Oct-13 20:18 211 2 gusting 7 16.1
2019-Oct-13 20:03 208 3 gusting 6 15.6
2019-Oct-13 19:48 257 0 gusting 6 14.4
2019-Oct-13 19:33 196 2 gusting 6 14.4
2019-Oct-13 19:18 190 1 gusting 4 13.9
2019-Oct-13 19:03 286 0 gusting 4 13.3
2019-Oct-13 18:48 151 12.8
2019-Oct-13 18:33 140 0 gusting 3 11.7
2019-Oct-13 18:18 140 11.1
2019-Oct-13 18:03 140 10.6
2019-Oct-13 17:48 140 10.6
2019-Oct-13 17:33 094 10.0
2019-Oct-13 17:18 094 9.4
2019-Oct-13 17:03 094 9.4
2019-Oct-13 16:48 094 8.9
2019-Oct-13 16:33 094 8.9
2019-Oct-13 16:18 094 8.3
2019-Oct-13 16:03 094 8.3
2019-Oct-13 15:48 094 7.8
2019-Oct-13 15:33 338 7.8
2019-Oct-13 15:03 338 7.2
2019-Oct-13 14:48 338 7.2
2019-Oct-13 14:33 338 7.2
2019-Oct-13 14:18 338 7.2
2019-Oct-13 14:03 338 7.2
2019-Oct-13 13:48 338 7.8
2019-Oct-13 13:33 338 7.8
2019-Oct-13 13:18 338 7.8
2019-Oct-13 12:48 338 7.8
2019-Oct-13 12:33 338 7.8
2019-Oct-13 12:18 338 7.8
2019-Oct-13 12:03 338 7.8
2019-Oct-13 11:48 338 7.8
2019-Oct-13 11:33 338 7.8
2019-Oct-13 11:18 338 7.8
2019-Oct-13 10:48 338 7.8
2019-Oct-13 10:33 338 7.8
2019-Oct-13 10:18 338 7.8
2019-Oct-13 10:03 338 8.3
2019-Oct-13 09:48 338 8.3
2019-Oct-13 09:33 338 8.9
2019-Oct-13 09:18 338 8.9
2019-Oct-13 09:03 338 8.9
2019-Oct-13 08:48 338 9.4
2019-Oct-13 08:33 338 9.4
2019-Oct-13 08:18 338 9.4
2019-Oct-13 08:03 338 9.4
2019-Oct-13 07:48 338 9.4
2019-Oct-13 07:33 360 9.4
2019-Oct-13 07:18 360 9.4
2019-Oct-13 07:03 360 9.4
2019-Oct-13 06:48 360 9.4
2019-Oct-13 06:33 360 9.4
2019-Oct-13 06:18 360 9.4
2019-Oct-13 06:03 360 9.4
2019-Oct-13 05:48 360 10.0
2019-Oct-13 05:33 360 10.0
2019-Oct-13 05:18 360 10.0
2019-Oct-13 05:03 360 10.0
2019-Oct-13 04:48 360 10.0
2019-Oct-13 04:33 360 10.0
2019-Oct-13 04:18 360 10.0
2019-Oct-13 04:03 360 10.6
2019-Oct-13 03:48 360 10.6
2019-Oct-13 03:33 360 10.6
2019-Oct-13 03:18 360 10.6
2019-Oct-13 03:03 360 11.1
2019-Oct-13 02:48 360 11.7
2019-Oct-13 02:33 360 12.2
2019-Oct-13 02:18 360 12.8
2019-Oct-13 02:03 360 12.8
2019-Oct-13 01:48 360 13.3
2019-Oct-13 01:33 360 13.3
2019-Oct-13 01:18 360 13.9
2019-Oct-13 01:03 360 14.4
2019-Oct-13 00:48 360 15.0
2019-Oct-13 00:33 005 15.0
2019-Oct-13 00:18 005 15.0
2019-Oct-13 00:03 360 15.6
2019-Oct-12 23:48 348 1 gusting 2 16.1
2019-Oct-12 23:33 332 2 gusting 4 15.6
2019-Oct-12 23:18 342 1 gusting 4 16.1
2019-Oct-12 23:03 017 0 gusting 4 16.1
2019-Oct-12 22:48 355 0 gusting 3 16.7
2019-Oct-12 22:33 084 0 gusting 2 16.1
2019-Oct-12 22:18 082 15.6
2019-Oct-12 22:03 083 15.0
2019-Oct-12 21:48 083 0 gusting 2 15.6
2019-Oct-12 21:33 083 15.6
2019-Oct-12 21:18 090 15.6
2019-Oct-12 21:03 090 0 gusting 2 14.4
2019-Oct-12 20:48 090 0 gusting 2 15.0
2019-Oct-12 20:33 090 14.4
2019-Oct-12 20:18 092 14.4
2019-Oct-12 20:03 082 13.3
2019-Oct-12 19:48 070 0 gusting 3 12.2
2019-Oct-12 19:33 060 0 gusting 2 11.7
2019-Oct-12 19:18 059 11.1
2019-Oct-12 19:03 059 0 gusting 2 11.1
2019-Oct-12 18:48 059 10.6
2019-Oct-12 18:33 059 10.6
2019-Oct-12 18:18 080 10.0
2019-Oct-12 18:03 079 9.4
2019-Oct-12 17:48 077 8.9
2019-Oct-12 17:33 076 7.8
2019-Oct-12 17:18 076 7.2
2019-Oct-12 17:03 076 6.7
2019-Oct-12 16:48 077 6.1
2019-Oct-12 16:33 077 0 gusting 2 5.6
2019-Oct-12 16:18 075 5.0
2019-Oct-12 16:03 038 1 gusting 2 4.4
2019-Oct-12 15:48 014 3.9
2019-Oct-12 15:33 014 3.9
2019-Oct-12 15:18 014 3.3
2019-Oct-12 15:03 014 3.3